Latest Coastal Weather Observations for Gannett Cay

IDQ60701

Issued at 8:35 pm EST Friday 18 April 2014 (issued every 10 minutes, with the page automatically refreshed every 10 minutes)

About coastal observations | Map of coastal stations | Coastal observations for QLD | Marine services | Other Formats
Station Details ID: 200831 Name: GANNET CAY Lat: -21.98 Lon: 152.47 Height: 2.3 m
Data from the previous 72 hours. | See also: Recent months for locations in Queensland
Date/Time
EST
Temp

°C
Wind Pressure Rain
since 9am
mm
Weather Cloud Vis
km
Sea
Height
m
Swell
Dir
 
Speed
knots
Gust
knots
hPa Trend Height
m
Period
s
Dir
18/08:30pm 24.8 NE 0 2 1016.4 - - - - - - - - -
18/08:26pm 24.8 NE 0 2 1016.5 - - - - - - - - -
18/08:00pm 24.9 CALM 0 1 1016.2 - - - - - - - - -
18/07:30pm 24.9 CALM 0 2 1015.9 - - - - - - - - -
18/07:26pm 24.8 CALM 0 - 1016.0 - - - - - - - - -
18/07:00pm 24.8 CALM 0 2 1015.5 - - - - - - - - -
18/06:30pm 24.7 CALM 0 3 1015.1 - - - - - - - - -
18/06:26pm 24.7 CALM 0 - 1015.2 - - - - - - - - -
18/06:00pm 24.7 ESE 3 3 1014.9 - - - - - - - - -
18/05:30pm 25.2 S 3 5 1014.7 - - - - - - - - -
18/05:26pm 25.2 S 4 - 1014.8 - - - - - - - - -
18/05:00pm 26.3 S 4 6 1014.4 - - - - - - - - -
18/04:30pm 27.0 SSE 3 4 1014.1 - - - - - - - - -
18/04:26pm 26.3 SSE 3 - 1014.1 - - - - - - - - -
18/04:00pm 26.7 SSE 5 6 1013.8 - - - - - - - - -
18/03:30pm 26.6 S 3 5 1013.7 - - - - - - - - -
18/03:26pm 26.4 S 4 - 1013.7 - - - - - - - - -
18/03:00pm 25.9 SSE 4 5 1013.7 - - - - - - - - -
18/02:30pm 25.9 S 4 6 1013.8 - - - - - - - - -
18/02:26pm 26.0 SSE 5 - 1013.9 - - - - - - - - -
18/02:00pm 26.2 SE 4 5 1014.0 - - - - - - - - -
18/01:30pm 26.6 S 3 4 1014.0 - - - - - - - - -
18/01:26pm 27.3 SSE 3 - 1014.1 - - - - - - - - -
18/01:00pm 26.9 ESE 1 4 1014.1 - - - - - - - - -
18/12:30pm 26.8 ENE 4 5 1014.5 - - - - - - - - -
18/12:26pm 26.0 ENE 3 - 1014.6 - - - - - - - - -
18/12:00pm 27.1 ENE 3 4 1014.9 - - - - - - - - -
18/11:30am 26.9 ENE 3 5 1015.5 - - - - - - - - -
18/11:26am 26.9 E 4 - 1015.7 - - - - - - - - -
18/11:00am 26.9 E 4 6 1016.0 - - - - - - - - -
18/10:30am 26.7 E 5 6 1016.3 - - - - - - - - -
18/10:26am 26.3 ESE 5 - 1016.4 - - - - - - - - -
18/10:00am 26.3 E 5 6 1016.4 - - - - - - - - -
18/09:30am 26.1 ESE 5 6 1016.5 - - - - - - - - -
18/09:26am 26.1 ESE 5 - 1016.6 - - - - - - - - -
18/09:00am 25.9 ESE 5 7 1016.5 - - - - - - - - -
18/08:30am 26.2 E 5 7 1016.4 - - - - - - - - -
18/08:26am 26.2 E 6 - 1016.5 - - - - - - - - -
18/08:00am 25.6 ESE 6 7 1016.4 - - - - - - - - -
18/07:30am 25.6 E 7 8 1016.2 - - - - - - - - -
18/07:26am 25.8 E 6 - 1016.3 - - - - - - - - -
18/07:00am 25.2 ESE 2 9 1016.0 - - - - - - - - -
18/06:30am 24.8 CALM 0 3 1015.9 - - - - - - - - -
18/06:26am 24.9 CALM 0 - 1016.0 - - - - - - - - -
18/06:00am 24.5 CALM 0 2 1015.7 - - - - - - - - -
18/05:30am 24.5 CALM 0 5 1015.5 - - - - - - - - -
18/05:26am 24.6 CALM 0 - 1015.5 - - - - - - - - -
18/05:00am 24.6 CALM 0 4 1015.3 - - - - - - - - -
18/04:30am 24.7 CALM 0 2 1015.2 - - - - - - - - -
18/04:26am 24.6 CALM 0 - 1015.3 - - - - - - - - -
18/04:00am 24.7 E 1 3 1015.1 - - - - - - - - -
18/03:30am 24.6 CALM 0 2 1015.2 - - - - - - - - -
18/03:26am 24.6 CALM 0 - 1015.3 - - - - - - - - -
18/03:00am 24.7 E 1 3 1015.1 - - - - - - - - -
18/02:30am 24.6 CALM 0 2 1015.2 - - - - - - - - -
18/02:26am 24.7 CALM 0 - 1015.4 - - - - - - - - -
18/02:00am 24.8 CALM 0 2 1015.5 - - - - - - - - -
18/01:30am 24.8 CALM 0 3 1015.5 - - - - - - - - -
18/01:26am 24.8 E 1 - 1015.6 - - - - - - - - -
18/01:00am 24.9 E 1 2 1015.8 - - - - - - - - -
18/12:30am 24.9 CALM 0 3 1016.3 - - - - - - - - -
18/12:26am 24.9 CALM 0 - 1016.3 - - - - - - - - -
18/12:00am 24.9 E 0 2 1016.4 - - - - - - - - -
 
Date/Time
EST
Temp

°C
Wind Pressure Rain
since 9am
mm
Weather Cloud Vis
km
Sea
Height
m
Swell
Dir
 
Speed
knots
Gust
knots
hPa Trend Height
m
Period
s
Dir
17/11:30pm 24.9 CALM 0 4 1016.6 - - - - - - - - -
17/11:26pm 24.9 CALM 0 - 1016.8 - - - - - - - - -
17/11:00pm 24.9 CALM 0 2 1016.9 - - - - - - - - -
17/10:30pm 24.9 CALM 0 2 1016.9 - - - - - - - - -
17/10:26pm 24.8 CALM 0 - 1016.9 - - - - - - - - -
17/10:00pm 24.8 CALM 0 2 1016.9 - - - - - - - - -
17/09:30pm 24.9 CALM 0 2 1017.0 - - - - - - - - -
17/09:26pm 24.9 CALM 0 - 1017.0 - - - - - - - - -
17/09:00pm 24.8 CALM 0 2 1016.8 - - - - - - - - -
17/08:30pm 24.8 ESE 1 2 1016.5 - - - - - - - - -
17/08:26pm 24.9 ESE 1 - 1016.6 - - - - - - - - -
17/08:00pm 24.8 ESE 1 3 1016.4 - - - - - - - - -
17/07:30pm 24.9 ESE 1 3 1016.2 - - - - - - - - -
17/07:26pm 24.8 ESE 1 - 1016.3 - - - - - - - - -
17/07:00pm 24.8 ESE 9 11 1015.7 - - - - - - - - -
17/06:30pm 24.8 ESE 8 9 1015.3 - - - - - - - - -
17/06:26pm 24.8 ESE 8 - 1015.3 - - - - - - - - -
17/06:00pm 24.9 ESE 9 10 1014.9 - - - - - - - - -
17/05:30pm 25.0 SE 7 10 1014.8 - - - - - - - - -
17/05:26pm 25.2 SE 7 - 1014.9 - - - - - - - - -
17/05:00pm 25.6 SE 9 11 1014.7 - - - - - - - - -
17/04:30pm 25.7 SE 8 11 1014.6 - - - - - - - - -
17/04:26pm 25.8 SE 8 - 1014.6 - - - - - - - - -
17/04:00pm 26.1 SSE 9 11 1014.5 - - - - - - - - -
17/03:30pm 26.3 SE 7 9 1014.5 - - - - - - - - -
17/03:26pm 26.2 SE 7 - 1014.6 - - - - - - - - -
17/03:00pm 25.9 SSE 9 11 1014.5 - - - - - - - - -
17/02:30pm 25.9 SE 9 11 1014.5 - - - - - - - - -
17/02:26pm 26.1 SSE 9 - 1014.6 - - - - - - - - -
17/02:00pm 26.0 SSE 9 11 1014.6 - - - - - - - - -
17/01:30pm 26.4 SSE 8 11 1014.8 - - - - - - - - -
17/01:26pm 26.1 SSE 8 - 1014.9 - - - - - - - - -
17/01:00pm 26.4 SE 7 9 1015.2 - - - - - - - - -
17/12:30pm 26.0 SE 8 10 1015.4 - - - - - - - - -
17/12:26pm 26.0 SE 8 - 1015.6 - - - - - - - - -
17/12:00pm 26.0 SE 8 10 1015.7 - - - - - - - - -
17/11:30am 25.8 SE 9 11 1016.1 - - - - - - - - -
17/11:26am 25.8 SE 9 - 1016.3 - - - - - - - - -
17/11:00am 25.7 ESE 9 11 1016.6 - - - - - - - - -
17/10:30am 25.8 ESE 9 12 1016.8 - - - - - - - - -
17/10:26am 25.8 ESE 10 - 1016.9 - - - - - - - - -
17/10:00am 25.6 ESE 11 13 1016.9 - - - - - - - - -
17/09:30am 25.5 ESE 10 13 1017.0 - - - - - - - - -
17/09:26am 25.6 ESE 10 - 1017.1 - - - - - - - - -
17/09:00am 25.6 ESE 11 13 1017.0 - - - - - - - - -
17/08:30am 25.6 ESE 11 14 1016.9 - - - - - - - - -
17/08:26am 25.5 ESE 11 - 1017.0 - - - - - - - - -
17/08:00am 25.3 ESE 12 14 1016.6 - - - - - - - - -
17/07:30am 25.2 ESE 12 14 1016.4 - - - - - - - - -
17/07:26am 25.2 ESE 12 - 1016.4 - - - - - - - - -
17/07:00am 24.9 ESE 12 14 1016.1 - - - - - - - - -
17/06:30am 24.8 ESE 1 13 1015.8 - - - - - - - - -
17/06:26am 24.9 CALM 0 - 1015.9 - - - - - - - - -
17/06:00am 24.8 ESE 1 3 1015.5 - - - - - - - - -
17/05:30am 24.7 SE 1 2 1015.1 - - - - - - - - -
17/05:26am 24.7 ESE 1 - 1015.1 - - - - - - - - -
17/05:00am 24.8 ESE 1 3 1014.7 - - - - - - - - -
17/04:30am 24.7 ESE 1 3 1014.5 - - - - - - - - -
17/04:26am 24.7 ESE 1 - 1014.6 - - - - - - - - -
17/04:00am 24.6 ESE 1 3 1014.5 - - - - - - - - -
17/03:30am 24.6 E 1 2 1014.5 - - - - - - - - -
17/03:26am 24.7 E 1 - 1014.6 - - - - - - - - -
17/03:00am 24.7 ESE 1 3 1014.5 - - - - - - - - -
17/02:30am 24.7 ESE 3 14 1014.4 - - - - - - - - -
17/02:26am 24.7 ESE 3 - 1014.5 - - - - - - - - -
17/02:00am 24.8 E 1 3 1014.2 - - - - - - - - -
17/01:30am 24.6 ESE 1 3 1014.4 - - - - - - - - -
17/01:26am 24.7 ESE 1 - 1014.7 - - - - - - - - -
17/01:00am 24.7 ESE 1 3 1014.9 - - - - - - - - -
17/12:30am 24.6 ESE 1 3 1015.1 - - - - - - - - -
17/12:26am 24.7 ESE 1 - 1015.3 - - - - - - - - -
17/12:00am 24.7 ESE 1 3 1015.2 - - - - - - - - -
 
Date/Time
EST
Temp

°C
Wind Pressure Rain
since 9am
mm
Weather Cloud Vis
km
Sea
Height
m
Swell
Dir
 
Speed
knots
Gust
knots
hPa Trend Height
m
Period
s
Dir
16/11:30pm 24.8 E 1 3 1015.1 - - - - - - - - -
16/11:26pm 24.7 E 1 - 1015.3 - - - - - - - - -
16/11:00pm 24.6 ESE 1 3 1015.3 - - - - - - - - -
16/10:30pm 24.7 ESE 1 3 1015.5 - - - - - - - - -
16/10:26pm 24.9 ESE 1 - 1015.5 - - - - - - - - -
16/10:00pm 24.8 ESE 1 2 1015.5 - - - - - - - - -
16/09:30pm 24.7 SE 1 2 1015.4 - - - - - - - - -
16/09:26pm 24.8 SE 1 - 1015.5 - - - - - - - - -
16/09:00pm 24.8 CALM 0 2 1015.3 - - - - - - - - -
16/08:30pm 24.8 ESE 1 3 1015.1 - - - - - - - - -
16/08:26pm 24.8 ESE 1 - 1015.2 - - - - - - - - -
16/08:00pm 24.9 ESE 1 2 1015.1 - - - - - - - - -
16/07:30pm 24.8 SE 1 3 1014.8 - - - - - - - - -
16/07:26pm 24.8 SE 1 - 1014.8 - - - - - - - - -
16/07:00pm 25.0 ESE 1 4 1014.3 - - - - - - - - -
16/06:30pm 24.9 ESE 10 12 1014.0 - - - - - - - - -
16/06:26pm 24.9 ESE 10 - 1014.1 - - - - - - - - -
16/06:00pm 24.9 SE 11 13 1013.8 - - - - - - - - -
16/05:30pm 25.1 SE 11 14 1013.5 - - - - - - - - -
16/05:26pm 25.1 SE 11 - 1013.6 - - - - - - - - -
16/05:00pm 25.5 SE 11 13 1013.4 - - - - - - - - -
16/04:30pm 25.8 SSE 12 16 1013.2 - - - - - - - - -
16/04:26pm 25.8 SE 12 - 1013.3 - - - - - - - - -
16/04:00pm 26.0 SSE 12 14 1013.1 - - - - - - - - -
16/03:30pm 26.1 SSE 11 13 1013.1 - - - - - - - - -
16/03:26pm 26.0 SSE 11 - 1013.2 - - - - - - - - -
16/03:00pm 26.0 SSE 11 13 1013.1 - - - - - - - - -
16/02:30pm 26.3 SSE 11 12 1013.2 - - - - - - - - -
16/02:26pm 26.1 SE 11 - 1013.3 - - - - - - - - -
16/02:00pm 26.2 SSE 11 13 1013.3 - - - - - - - - -
16/01:30pm 25.9 SE 11 13 1013.5 - - - - - - - - -
16/01:26pm 25.9 SE 11 - 1013.7 - - - - - - - - -
16/01:00pm 25.9 SE 10 12 1013.8 - - - - - - - - -
16/12:30pm 25.9 SE 11 13 1013.9 - - - - - - - - -
16/12:26pm 25.8 SE 11 - 1014.0 - - - - - - - - -
16/12:00pm 25.6 ESE 12 14 1014.0 - - - - - - - - -
16/11:30am 24.9 ESE 8 13 1014.4 - - - - - - - - -
16/11:26am 24.9 SE 9 - 1014.6 - - - - - - - - -
16/11:00am 25.8 SE 9 10 1014.8 - - - - - - - - -
16/10:30am 25.8 ESE 9 11 1015.2 - - - - - - - - -
16/10:26am 25.8 ESE 10 - 1015.3 - - - - - - - - -
16/10:00am 25.9 ESE 9 11 1015.5 - - - - - - - - -
16/09:30am 25.7 SE 10 11 1015.5 - - - - - - - - -
16/09:26am 25.6 SE 10 - 1015.7 - - - - - - - - -
16/09:00am 25.6 ESE 11 13 1015.4 - - - - - - - - -
16/08:30am 25.5 SE 11 14 1015.1 - - - - - - - - -
16/08:26am 25.4 SE 11 - 1015.3 - - - - - - - - -
16/08:00am 25.4 SE 12 14 1015.2 - - - - - - - - -
16/07:30am 25.1 SE 13 14 1015.0 - - - - - - - - -
16/07:26am 25.3 SE 12 - 1015.1 - - - - - - - - -
16/07:00am 25.1 ESE 11 13 1014.7 - - - - - - - - -
16/06:30am 24.9 SE 11 13 1014.4 - - - - - - - - -
16/06:26am 25.0 SE 11 - 1014.5 - - - - - - - - -
16/06:00am 24.9 ESE 13 16 1014.1 - - - - - - - - -
16/05:30am 25.0 ESE 12 14 1013.8 - - - - - - - - -
16/05:26am 24.8 ESE 12 - 1013.9 - - - - - - - - -
16/05:00am 24.8 SE 12 14 1013.7 - - - - - - - - -
16/04:30am 24.8 SE 14 17 1013.4 - - - - - - - - -
16/04:26am 24.7 SE 14 - 1013.5 - - - - - - - - -
16/04:00am 24.9 SE 13 17 1013.4 - - - - - - - - -
16/03:30am 24.7 ESE 13 15 1013.2 - - - - - - - - -
16/03:26am 24.7 ESE 13 - 1013.2 - - - - - - - - -
16/03:00am 24.8 ESE 14 17 1013.1 - - - - - - - - -
16/02:30am 24.8 ESE 15 17 1013.1 - - - - - - - - -
16/02:26am 24.9 ESE 15 - 1013.1 - - - - - - - - -
16/02:00am 24.9 ESE 16 19 1013.0 - - - - - - - - -
16/01:30am 25.1 ESE 16 19 1013.2 - - - - - - - - -
16/01:26am 25.1 SE 17 - 1013.3 - - - - - - - - -
16/01:00am 25.1 ESE 17 19 1013.5 - - - - - - - - -
16/12:30am 25.1 SE 17 20 1013.9 - - - - - - - - -
16/12:26am 25.1 SE 17 - 1014.1 - - - - - - - - -
16/12:00am 25.1 SE 16 19 1014.1 - - - - - - - - -
 
Date/Time
EST
Temp

°C
Wind Pressure Rain
since 9am
mm
Weather Cloud Vis
km
Sea
Height
m
Swell
Dir
 
Speed
knots
Gust
knots
hPa Trend Height
m
Period
s
Dir
15/11:30pm 25.2 SE 18 20 1014.2 - - - - - - - - -
15/11:26pm 25.2 SE 17 - 1014.4 - - - - - - - - -
15/11:00pm 25.3 SE 16 19 1014.4 - - - - - - - - -
15/10:30pm 25.4 SE 16 19 1014.4 - - - - - - - - -
15/10:26pm 25.2 SE 16 - 1014.5 - - - - - - - - -
15/10:00pm 25.3 SE 18 21 1014.2 - - - - - - - - -
15/09:30pm 25.3 SE 17 21 1014.4 - - - - - - - - -
15/09:26pm 25.3 SE 17 - 1014.5 - - - - - - - - -
15/09:00pm 25.4 SSE 17 21 1014.3 - - - - - - - - -

Other Formats:

Comma delimited format used in spreadsheet applications
http://www.bom.gov.au/fwo/IDQ60701/IDQ60701.94379.axf

JavaScript Object Notation format (JSON) in row-major order
http://www.bom.gov.au/fwo/IDQ60701/IDQ60701.94379.json